createdAt,value
2023-01-26T00:00:35.979Z,55.50
2023-01-26T00:01:35.945Z,54.10
2023-01-26T00:02:36.000Z,55.20
2023-01-26T00:03:35.985Z,54.70
2023-01-26T00:04:35.931Z,52.80
2023-01-26T00:05:35.902Z,52.90
2023-01-26T00:06:35.915Z,54.30
2023-01-26T00:07:35.885Z,53.70
2023-01-26T00:08:35.889Z,55.20
2023-01-26T00:09:35.885Z,57.00
2023-01-26T00:10:35.870Z,55.30
2023-01-26T00:11:35.840Z,53.50
2023-01-26T00:12:35.854Z,50.40
2023-01-26T00:13:35.833Z,52.80
2023-01-26T00:14:35.829Z,53.40
2023-01-26T00:15:35.812Z,52.60
2023-01-26T00:16:35.813Z,53.10
2023-01-26T00:17:35.778Z,53.60
2023-01-26T00:18:35.793Z,52.40
2023-01-26T00:19:35.754Z,52.70
2023-01-26T00:20:35.779Z,52.50
2023-01-26T00:21:35.752Z,54.80
2023-01-26T00:22:35.751Z,53.80
2023-01-26T00:23:35.780Z,52.30
2023-01-26T00:24:35.735Z,52.00
2023-01-26T00:25:35.709Z,52.40
2023-01-26T00:26:35.707Z,52.20
2023-01-26T00:27:35.694Z,53.20
2023-01-26T00:28:35.692Z,53.40
2023-01-26T00:29:35.657Z,56.20
2023-01-26T00:30:35.707Z,54.50
2023-01-26T00:31:35.698Z,54.10
2023-01-26T00:32:35.651Z,55.50
2023-01-26T00:33:35.638Z,57.40
2023-01-26T00:34:35.628Z,57.20
2023-01-26T00:35:35.614Z,54.60
2023-01-26T00:36:35.608Z,55.30
2023-01-26T00:37:35.633Z,54.30
2023-01-26T00:38:35.589Z,53.00
2023-01-26T00:39:35.591Z,50.60
2023-01-26T00:40:35.574Z,56.30
2023-01-26T00:41:35.565Z,53.30
2023-01-26T00:42:35.557Z,55.40
2023-01-26T00:43:35.527Z,54.40
2023-01-26T00:44:35.533Z,54.30
2023-01-26T00:45:35.616Z,56.40
2023-01-26T00:46:35.532Z,54.80
2023-01-26T00:47:35.474Z,56.10
2023-01-26T00:48:35.495Z,55.70
2023-01-26T00:49:35.455Z,54.80
2023-01-26T00:50:35.483Z,54.60
2023-01-26T00:51:35.454Z,54.10
2023-01-26T00:52:35.451Z,53.50
2023-01-26T00:53:35.422Z,54.80
2023-01-26T00:54:35.435Z,54.80
2023-01-26T00:55:35.395Z,55.40
2023-01-26T00:56:35.418Z,55.20
2023-01-26T00:57:35.389Z,56.80
2023-01-26T00:58:35.392Z,55.60
2023-01-26T00:59:35.600Z,55.20
2023-01-26T01:00:35.589Z,53.70
2023-01-26T01:01:35.393Z,55.60
2023-01-26T01:02:35.353Z,53.90
2023-01-26T01:03:35.338Z,55.50
2023-01-26T01:04:35.347Z,54.60
2023-01-26T01:05:35.311Z,55.90
2023-01-26T01:06:35.305Z,56.00
2023-01-26T01:07:35.496Z,54.70
2023-01-26T01:08:35.287Z,54.30
2023-01-26T01:09:35.281Z,53.70
2023-01-26T01:10:35.273Z,52.90
2023-01-26T01:11:35.248Z,54.40
2023-01-26T01:12:35.258Z,52.20
2023-01-26T01:13:35.222Z,51.60
2023-01-26T01:14:35.231Z,51.60
2023-01-26T01:15:35.209Z,53.20
2023-01-26T01:16:35.206Z,50.40
2023-01-26T01:17:35.173Z,48.40
2023-01-26T01:18:35.201Z,47.90
2023-01-26T01:19:35.163Z,48.90
2023-01-26T01:20:35.165Z,47.20
2023-01-26T01:21:35.175Z,47.60
2023-01-26T01:22:35.151Z,48.80
2023-01-26T01:23:35.113Z,46.30
2023-01-26T01:24:35.127Z,45.60
2023-01-26T01:25:35.093Z,48.30
2023-01-26T01:26:35.111Z,47.70
2023-01-26T01:27:35.113Z,47.50
2023-01-26T01:28:35.091Z,48.30
2023-01-26T01:29:35.058Z,45.40
2023-01-26T01:30:35.066Z,47.00
2023-01-26T01:31:35.142Z,47.90
2023-01-26T01:32:35.053Z,49.50
2023-01-26T01:33:35.027Z,49.50
2023-01-26T01:34:35.026Z,48.00
2023-01-26T01:35:34.994Z,48.10
2023-01-26T01:36:35.005Z,47.20
2023-01-26T01:37:34.971Z,48.70
2023-01-26T01:38:34.985Z,48.00
2023-01-26T01:39:34.998Z,47.70
2023-01-26T01:40:34.966Z,47.10
2023-01-26T01:41:34.939Z,48.20
2023-01-26T01:42:34.948Z,49.60
2023-01-26T01:43:34.910Z,48.30
2023-01-26T01:44:34.935Z,47.50
2023-01-26T01:45:35.033Z,47.30
2023-01-26T01:46:34.944Z,46.60
2023-01-26T01:47:34.876Z,47.70
2023-01-26T01:48:34.884Z,48.70
2023-01-26T01:49:34.853Z,47.90
2023-01-26T01:50:34.864Z,46.50
2023-01-26T01:51:34.866Z,46.80
2023-01-26T01:52:34.853Z,45.60
2023-01-26T01:53:34.823Z,45.00
2023-01-26T01:54:34.825Z,43.90
2023-01-26T01:55:34.790Z,42.60
2023-01-26T01:56:34.809Z,42.50
2023-01-26T01:57:34.808Z,43.50
2023-01-26T01:58:34.784Z,42.40
2023-01-26T01:59:34.763Z,41.80
2023-01-26T02:00:34.805Z,42.90
2023-01-26T02:01:34.802Z,43.60
2023-01-26T02:02:34.740Z,43.70
2023-01-26T02:03:34.760Z,43.20
2023-01-26T02:04:34.723Z,42.20
2023-01-26T02:05:34.692Z,42.90
2023-01-26T02:06:34.705Z,43.50
2023-01-26T02:07:34.678Z,45.40
2023-01-26T02:08:34.681Z,45.40
2023-01-26T02:09:34.674Z,43.80
2023-01-26T02:10:34.666Z,46.90
2023-01-26T02:11:34.629Z,47.60
2023-01-26T02:12:34.624Z,45.50
2023-01-26T02:13:34.633Z,47.30
2023-01-26T02:14:34.597Z,46.30
2023-01-26T02:15:34.628Z,47.60
2023-01-26T02:16:34.649Z,48.90
2023-01-26T02:17:34.592Z,49.30
2023-01-26T02:18:34.564Z,49.40
2023-01-26T02:19:34.590Z,49.60
2023-01-26T02:20:34.542Z,49.00
2023-01-26T02:21:34.598Z,51.40
2023-01-26T02:22:34.525Z,51.50
2023-01-26T02:23:34.546Z,51.70
2023-01-26T02:24:34.506Z,52.40
2023-01-26T02:25:34.539Z,49.40
2023-01-26T02:26:34.640Z,52.40
2023-01-26T02:27:34.563Z,51.50
2023-01-26T02:28:34.468Z,50.40
2023-01-26T02:29:34.475Z,52.30
2023-01-26T02:30:34.501Z,50.10
2023-01-26T02:31:34.461Z,50.50
2023-01-26T02:32:34.431Z,49.60
2023-01-26T02:33:34.451Z,50.80
2023-01-26T02:34:34.434Z,52.80
2023-01-26T02:35:34.414Z,50.80
2023-01-26T02:36:34.387Z,52.20
2023-01-26T02:37:34.399Z,55.60
2023-01-26T02:38:34.373Z,54.40
2023-01-26T02:39:34.394Z,51.20
2023-01-26T02:40:34.353Z,51.90
2023-01-26T02:41:34.354Z,52.90
2023-01-26T02:42:34.329Z,56.00
2023-01-26T02:43:34.339Z,56.70
2023-01-26T02:44:34.298Z,55.10
2023-01-26T02:45:34.333Z,54.20
2023-01-26T02:46:34.334Z,54.40
2023-01-26T02:47:34.299Z,53.90
2023-01-26T02:48:34.257Z,55.60
2023-01-26T02:49:34.289Z,54.60
2023-01-26T02:50:34.245Z,57.80
2023-01-26T02:51:34.348Z,59.10
2023-01-26T02:52:34.238Z,59.20
2023-01-26T02:53:34.231Z,55.30
2023-01-26T02:54:34.197Z,54.40
2023-01-26T02:55:34.211Z,56.10
2023-01-26T02:56:34.194Z,55.10
2023-01-26T02:57:34.232Z,58.20
2023-01-26T02:58:34.161Z,52.60
2023-01-26T02:59:34.168Z,57.60
2023-01-26T03:00:34.176Z,53.90
2023-01-26T03:01:34.152Z,59.60
2023-01-26T03:02:34.127Z,55.50
2023-01-26T03:03:34.146Z,55.60
2023-01-26T03:04:34.105Z,53.20
2023-01-26T03:05:34.114Z,56.20
2023-01-26T03:06:34.086Z,57.10
2023-01-26T03:07:34.089Z,56.10
2023-01-26T03:08:34.056Z,55.10
2023-01-26T03:09:34.100Z,57.60
2023-01-26T03:10:34.037Z,55.70
2023-01-26T03:11:34.051Z,56.20
2023-01-26T03:12:34.027Z,52.80
2023-01-26T03:13:34.035Z,55.40
2023-01-26T03:14:33.993Z,53.10
2023-01-26T03:15:34.022Z,55.40
2023-01-26T03:16:34.025Z,56.40
2023-01-26T03:17:33.988Z,54.90
2023-01-26T03:18:33.960Z,53.50
2023-01-26T03:19:33.972Z,54.30
2023-01-26T03:20:33.942Z,54.30
2023-01-26T03:21:33.977Z,52.30
2023-01-26T03:22:33.929Z,54.00
2023-01-26T03:23:33.930Z,52.50
2023-01-26T03:24:33.917Z,55.90
2023-01-26T03:25:33.909Z,53.50
2023-01-26T03:26:33.874Z,55.30
2023-01-26T03:27:33.915Z,51.60
2023-01-26T03:28:33.854Z,51.70
2023-01-26T03:29:33.886Z,53.30
2023-01-26T03:30:33.891Z,55.50
2023-01-26T03:31:33.912Z,52.30
2023-01-26T03:32:33.827Z,55.30
2023-01-26T03:33:33.883Z,52.30
2023-01-26T03:34:33.805Z,52.10
2023-01-26T03:35:33.807Z,51.40
2023-01-26T03:36:33.775Z,52.00
2023-01-26T03:37:33.792Z,53.20
2023-01-26T03:38:33.756Z,54.80
2023-01-26T03:39:33.792Z,53.50
2023-01-26T03:40:33.750Z,54.40
2023-01-26T03:41:33.750Z,55.80
2023-01-26T03:42:33.725Z,54.70
2023-01-26T03:43:33.728Z,56.50
2023-01-26T03:44:33.699Z,52.20
2023-01-26T03:45:33.723Z,54.80
2023-01-26T03:46:33.738Z,57.40
2023-01-26T03:47:33.692Z,55.40
2023-01-26T03:48:33.662Z,54.70
2023-01-26T03:49:33.668Z,56.00
2023-01-26T03:50:33.638Z,56.20
2023-01-26T03:51:33.671Z,54.90
2023-01-26T03:52:33.622Z,55.30
2023-01-26T03:53:33.648Z,55.60
2023-01-26T03:54:33.595Z,56.80
2023-01-26T03:55:33.610Z,55.80
2023-01-26T03:56:33.584Z,55.80
2023-01-26T03:57:33.651Z,58.10
2023-01-26T03:58:33.559Z,58.20
2023-01-26T03:59:33.568Z,57.60
2023-01-26T04:00:33.573Z,57.40
2023-01-26T04:01:33.546Z,57.80
2023-01-26T04:02:33.532Z,60.70
2023-01-26T04:03:33.565Z,58.50
2023-01-26T04:04:33.497Z,58.60
2023-01-26T04:05:33.518Z,58.00
2023-01-26T04:06:33.477Z,58.50
2023-01-26T04:07:33.485Z,58.40
2023-01-26T04:08:33.456Z,59.00
2023-01-26T04:09:33.517Z,58.60
2023-01-26T04:10:33.456Z,58.80
2023-01-26T04:11:33.431Z,57.50
2023-01-26T04:12:33.435Z,60.70
2023-01-26T04:13:33.408Z,61.90
2023-01-26T04:14:34.493Z,59.30
2023-01-26T04:15:33.420Z,59.60
2023-01-26T04:16:33.426Z,60.20
2023-01-26T04:17:33.367Z,60.80
2023-01-26T04:18:33.382Z,62.20
2023-01-26T04:19:33.346Z,59.00
2023-01-26T04:20:33.357Z,60.90
2023-01-26T04:21:33.413Z,60.40
2023-01-26T04:22:33.340Z,60.90
2023-01-26T04:23:33.303Z,60.40
2023-01-26T04:24:33.319Z,60.70
2023-01-26T04:25:33.290Z,63.20
2023-01-26T04:26:33.295Z,61.40
2023-01-26T04:27:33.290Z,64.50
2023-01-26T04:28:33.279Z,60.20
2023-01-26T04:29:33.240Z,62.50
2023-01-26T04:30:33.303Z,62.10
2023-01-26T04:31:33.305Z,61.70
2023-01-26T04:32:33.240Z,62.70
2023-01-26T04:33:33.228Z,61.90
2023-01-26T04:34:33.219Z,60.40
2023-01-26T04:35:33.183Z,62.30
2023-01-26T04:36:33.207Z,60.90
2023-01-26T04:37:33.161Z,63.40
2023-01-26T04:38:33.179Z,60.30
2023-01-26T04:39:33.162Z,59.50
2023-01-26T04:40:33.156Z,59.90
2023-01-26T04:41:33.121Z,63.20
2023-01-26T04:42:33.140Z,62.00
2023-01-26T04:43:33.103Z,62.60
2023-01-26T04:44:33.112Z,60.20
2023-01-26T04:45:33.108Z,59.00
2023-01-26T04:46:33.094Z,62.50
2023-01-26T04:47:33.059Z,62.30
2023-01-26T04:48:33.072Z,61.00
2023-01-26T04:49:33.040Z,58.80
2023-01-26T04:50:33.066Z,62.10
2023-01-26T04:51:33.048Z,61.70
2023-01-26T04:52:33.048Z,59.30
2023-01-26T04:53:33.000Z,60.00
2023-01-26T04:54:33.034Z,64.20
2023-01-26T04:55:32.978Z,59.20
2023-01-26T04:56:33.006Z,57.80
2023-01-26T04:57:32.975Z,58.30
2023-01-26T04:58:32.974Z,59.20
2023-01-26T04:59:32.956Z,60.50
2023-01-26T05:00:32.960Z,60.40
2023-01-26T05:01:32.922Z,62.00
2023-01-26T05:02:32.949Z,60.90
2023-01-26T05:03:32.957Z,61.40
2023-01-26T05:04:32.963Z,62.70
2023-01-26T05:05:32.881Z,63.70
2023-01-26T05:06:32.892Z,60.60
2023-01-26T05:07:32.866Z,61.60
2023-01-26T05:08:32.882Z,60.90
2023-01-26T05:09:32.856Z,61.40
2023-01-26T05:10:32.852Z,60.50
2023-01-26T05:11:32.829Z,61.50
2023-01-26T05:12:32.833Z,63.80
2023-01-26T05:13:32.799Z,61.90
2023-01-26T05:14:32.815Z,63.50
2023-01-26T05:15:32.802Z,64.10
2023-01-26T05:16:32.862Z,65.40
2023-01-26T05:17:32.765Z,65.00
2023-01-26T05:18:32.769Z,64.60
2023-01-26T05:19:32.741Z,61.80
2023-01-26T05:20:32.755Z,62.40
2023-01-26T05:21:32.739Z,62.00
2023-01-26T05:22:32.738Z,64.70
2023-01-26T05:23:32.699Z,64.50
2023-01-26T05:24:32.726Z,69.20
2023-01-26T05:25:32.681Z,68.50
2023-01-26T05:26:32.697Z,66.40
2023-01-26T05:27:32.705Z,63.80
2023-01-26T05:28:32.678Z,64.90
2023-01-26T05:29:32.637Z,63.90
2023-01-26T05:30:32.710Z,64.90
2023-01-26T05:31:32.659Z,64.90
2023-01-26T05:32:32.658Z,62.20
2023-01-26T05:33:32.619Z,63.60
2023-01-26T05:34:32.618Z,65.60
2023-01-26T05:35:32.583Z,66.70
2023-01-26T05:36:32.590Z,62.30
2023-01-26T05:37:32.565Z,64.50
2023-01-26T05:38:32.569Z,63.60
2023-01-26T05:39:32.553Z,66.70
2023-01-26T05:40:32.568Z,65.80
2023-01-26T05:41:32.554Z,62.70
2023-01-26T05:42:32.536Z,65.00
2023-01-26T05:43:32.507Z,63.40
2023-01-26T05:44:32.515Z,62.20
2023-01-26T05:45:32.529Z,64.80
2023-01-26T05:46:32.498Z,62.40
2023-01-26T05:47:32.456Z,61.50
2023-01-26T05:48:32.471Z,63.00
2023-01-26T05:49:32.451Z,61.40
2023-01-26T05:50:32.447Z,60.30
2023-01-26T05:51:32.432Z,60.30
2023-01-26T05:52:32.443Z,61.70
2023-01-26T05:53:32.394Z,61.50
2023-01-26T05:54:32.418Z,63.00
2023-01-26T05:55:32.375Z,63.10
2023-01-26T05:56:32.391Z,66.70
2023-01-26T05:57:32.386Z,61.60
2023-01-26T05:58:32.387Z,61.80
2023-01-26T05:59:32.347Z,63.20
2023-01-26T06:00:32.347Z,66.90
2023-01-26T06:01:32.321Z,63.30
2023-01-26T06:02:32.347Z,62.10
2023-01-26T06:03:32.318Z,62.20
2023-01-26T06:04:32.376Z,63.20
2023-01-26T06:05:32.276Z,62.90
2023-01-26T06:06:32.290Z,62.30
2023-01-26T06:07:32.263Z,63.80
2023-01-26T06:08:32.280Z,63.60
2023-01-26T06:09:32.276Z,67.10
2023-01-26T06:10:32.249Z,64.30
2023-01-26T06:11:32.227Z,62.90
2023-01-26T06:12:32.238Z,64.50
2023-01-26T06:13:32.214Z,63.50
2023-01-26T06:14:32.208Z,64.80
2023-01-26T06:15:32.188Z,64.10
2023-01-26T06:16:32.264Z,65.30
2023-01-26T06:17:32.155Z,64.50
2023-01-26T06:18:32.167Z,65.60
2023-01-26T06:19:32.136Z,69.20
2023-01-26T06:20:32.147Z,64.60
2023-01-26T06:21:32.128Z,67.00
2023-01-26T06:22:32.132Z,65.90
2023-01-26T06:23:32.114Z,67.00
2023-01-26T06:24:32.113Z,68.10
2023-01-26T06:25:32.074Z,64.60
2023-01-26T06:26:32.089Z,65.40
2023-01-26T06:27:32.074Z,66.10
2023-01-26T06:28:32.043Z,67.40
2023-01-26T06:29:32.055Z,68.50
2023-01-26T06:30:32.078Z,68.00
2023-01-26T06:31:32.170Z,68.20
2023-01-26T06:32:32.011Z,70.60
2023-01-26T06:33:32.030Z,70.90
2023-01-26T06:34:31.983Z,69.30
2023-01-26T06:35:32.011Z,71.00
2023-01-26T06:36:31.963Z,67.80
2023-01-26T06:37:31.979Z,69.50
2023-01-26T06:38:32.031Z,69.10
2023-01-26T06:39:32.003Z,69.10
2023-01-26T06:40:31.934Z,69.60
2023-01-26T06:41:31.939Z,68.90
2023-01-26T06:42:31.900Z,67.10
2023-01-26T06:43:31.915Z,69.20
2023-01-26T06:44:31.894Z,69.00
2023-01-26T06:45:31.927Z,67.40
2023-01-26T06:46:31.863Z,68.20
2023-01-26T06:47:31.892Z,67.60
2023-01-26T06:48:31.863Z,68.10
2023-01-26T06:49:31.862Z,70.90
2023-01-26T06:50:31.827Z,69.20
2023-01-26T06:51:31.848Z,70.10
2023-01-26T06:52:31.800Z,68.80
2023-01-26T06:53:31.817Z,68.70
2023-01-26T06:54:31.804Z,65.80
2023-01-26T06:55:31.798Z,66.70
2023-01-26T06:56:31.770Z,65.80
2023-01-26T06:57:31.809Z,66.20
2023-01-26T06:58:31.744Z,66.50
2023-01-26T06:59:31.757Z,64.50
2023-01-26T07:00:31.722Z,66.60
2023-01-26T07:01:31.820Z,67.80
2023-01-26T07:02:31.732Z,65.90
2023-01-26T07:03:31.738Z,64.80
2023-01-26T07:04:31.681Z,67.50
2023-01-26T07:05:31.705Z,65.00
2023-01-26T07:06:31.674Z,65.00
2023-01-26T07:07:31.678Z,64.80
2023-01-26T07:08:31.674Z,64.80
2023-01-26T07:09:31.690Z,66.40
2023-01-26T07:10:31.637Z,65.40
2023-01-26T07:11:31.639Z,66.50
2023-01-26T07:12:31.626Z,63.30
2023-01-26T07:13:31.626Z,63.30
2023-01-26T07:14:31.581Z,62.30
2023-01-26T07:15:31.621Z,64.50
2023-01-26T07:16:33.735Z,61.50
2023-01-26T07:17:31.572Z,61.30
2023-01-26T07:18:31.556Z,62.60
2023-01-26T07:19:31.564Z,64.20
2023-01-26T07:20:31.520Z,60.90
2023-01-26T07:21:31.555Z,61.50
2023-01-26T07:22:31.501Z,61.90
2023-01-26T07:23:33.053Z,65.10
2023-01-26T07:24:31.478Z,62.80
2023-01-26T07:25:31.495Z,63.30
2023-01-26T07:26:31.466Z,63.60
2023-01-26T07:27:31.516Z,64.00
2023-01-26T07:28:31.442Z,65.60
2023-01-26T07:29:31.451Z,66.00
2023-01-26T07:30:31.417Z,63.90
2023-01-26T07:31:31.492Z,66.80
2023-01-26T07:32:31.413Z,64.80
2023-01-26T07:33:31.432Z,65.80
2023-01-26T07:34:31.385Z,66.10
2023-01-26T07:35:31.393Z,64.60
2023-01-26T07:36:31.370Z,65.00
2023-01-26T07:37:31.372Z,63.50
2023-01-26T07:38:31.343Z,61.20
2023-01-26T07:39:31.378Z,63.00
2023-01-26T07:40:31.321Z,64.60
2023-01-26T07:41:31.332Z,65.40
2023-01-26T07:42:31.302Z,64.70
2023-01-26T07:43:31.311Z,64.80
2023-01-26T07:44:31.282Z,67.50
2023-01-26T07:45:31.305Z,67.00
2023-01-26T07:46:31.316Z,63.70
2023-01-26T07:47:31.271Z,64.00
2023-01-26T07:48:31.244Z,62.20
2023-01-26T07:49:31.250Z,64.20
2023-01-26T07:50:31.225Z,64.50
2023-01-26T07:51:31.257Z,64.80
2023-01-26T07:52:31.197Z,65.20
2023-01-26T07:53:31.218Z,65.60
2023-01-26T07:54:31.182Z,65.80
2023-01-26T07:55:31.190Z,66.40
2023-01-26T07:56:31.159Z,65.00
2023-01-26T07:57:31.200Z,61.90
2023-01-26T07:58:31.135Z,64.10
2023-01-26T07:59:31.152Z,63.50
2023-01-26T08:00:31.116Z,64.60
2023-01-26T08:01:31.166Z,64.00
2023-01-26T08:02:31.145Z,64.60
2023-01-26T08:03:31.138Z,64.70
2023-01-26T08:04:31.079Z,64.60
2023-01-26T08:05:31.091Z,65.10
2023-01-26T08:06:31.056Z,64.10
2023-01-26T08:07:31.075Z,62.50
2023-01-26T08:08:31.044Z,62.40
2023-01-26T08:09:31.065Z,61.70
2023-01-26T08:10:31.019Z,61.50
2023-01-26T08:11:31.030Z,62.20
2023-01-26T08:12:30.997Z,64.00
2023-01-26T08:13:35.760Z,62.40
2023-01-26T08:14:45.085Z,61.50
2023-01-26T08:15:31.043Z,64.60
2023-01-26T08:16:31.000Z,64.20
2023-01-26T08:17:30.970Z,64.00
2023-01-26T08:18:30.938Z,60.70
2023-01-26T08:19:30.951Z,64.90
2023-01-26T08:20:30.920Z,65.00
2023-01-26T08:21:30.965Z,63.20
2023-01-26T08:22:30.898Z,65.80
2023-01-26T08:23:30.921Z,63.30
2023-01-26T08:24:30.873Z,63.60
2023-01-26T08:25:30.894Z,66.70
2023-01-26T08:26:30.873Z,65.60
2023-01-26T08:27:30.883Z,64.70
2023-01-26T08:28:30.853Z,65.40
2023-01-26T08:29:30.850Z,64.00
2023-01-26T08:30:30.815Z,65.30
2023-01-26T08:31:30.876Z,67.00
2023-01-26T08:32:30.793Z,64.10
2023-01-26T08:33:30.832Z,65.90
2023-01-26T08:34:30.774Z,67.00
2023-01-26T08:35:30.788Z,65.60
2023-01-26T08:36:30.760Z,63.40
2023-01-26T08:37:30.783Z,65.50
2023-01-26T08:38:30.751Z,63.60
2023-01-26T08:39:30.768Z,62.10
2023-01-26T08:40:30.715Z,63.40
2023-01-26T08:41:30.725Z,66.20
2023-01-26T08:42:30.701Z,65.70
2023-01-26T08:43:30.759Z,66.70
2023-01-26T08:44:30.678Z,64.20
2023-01-26T08:45:31.810Z,63.00
2023-01-26T08:46:30.658Z,63.90
2023-01-26T08:47:30.666Z,64.00
2023-01-26T08:48:30.636Z,64.40
2023-01-26T08:49:30.650Z,66.90
2023-01-26T08:50:30.613Z,65.60
2023-01-26T08:51:30.643Z,64.30
2023-01-26T08:52:30.593Z,67.10
2023-01-26T08:53:30.608Z,70.10
2023-01-26T08:54:30.574Z,68.70
2023-01-26T08:55:30.585Z,66.10
2023-01-26T08:56:30.555Z,68.10
2023-01-26T08:57:30.597Z,67.70
2023-01-26T08:58:30.540Z,69.50
2023-01-26T08:59:30.545Z,68.80
2023-01-26T09:00:30.515Z,67.50
2023-01-26T09:01:30.581Z,67.60
2023-01-26T09:02:30.650Z,66.60
2023-01-26T09:03:30.536Z,65.00
2023-01-26T09:04:30.473Z,67.50
2023-01-26T09:05:30.484Z,68.40
2023-01-26T09:06:30.460Z,68.20
2023-01-26T09:07:30.470Z,68.50
2023-01-26T09:08:30.486Z,65.70
2023-01-26T09:09:30.462Z,64.40
2023-01-26T09:10:30.412Z,63.10
2023-01-26T09:11:30.427Z,66.90
2023-01-26T09:12:30.395Z,67.30
2023-01-26T09:13:30.406Z,63.40
2023-01-26T09:14:30.386Z,65.20
2023-01-26T09:15:30.404Z,63.50
2023-01-26T09:16:30.389Z,63.80
2023-01-26T09:17:30.437Z,64.60
2023-01-26T09:18:30.333Z,62.80
2023-01-26T09:19:31.263Z,64.90
2023-01-26T09:20:30.333Z,62.30
2023-01-26T09:21:30.349Z,61.20
2023-01-26T09:22:30.297Z,62.50
2023-01-26T09:23:30.312Z,61.10
2023-01-26T09:24:30.272Z,62.10
2023-01-26T09:25:30.289Z,62.40
2023-01-26T09:26:30.259Z,60.50
2023-01-26T09:27:30.296Z,61.50
2023-01-26T09:28:30.237Z,59.50
2023-01-26T09:29:30.241Z,61.10
2023-01-26T09:30:30.429Z,59.00
2023-01-26T09:31:30.427Z,61.00
2023-01-26T09:32:30.193Z,60.40
2023-01-26T09:33:30.244Z,61.50
2023-01-26T09:34:30.170Z,60.60
2023-01-26T09:35:30.252Z,60.80
2023-01-26T09:36:30.157Z,61.90
2023-01-26T09:37:30.167Z,60.90
2023-01-26T09:38:30.129Z,61.20
2023-01-26T09:39:30.159Z,59.20
2023-01-26T09:40:30.128Z,62.60
2023-01-26T09:41:30.129Z,58.90
2023-01-26T09:42:30.091Z,59.70
2023-01-26T09:43:30.122Z,59.10
2023-01-26T09:44:30.079Z,59.60
2023-01-26T09:45:30.115Z,60.60
2023-01-26T09:46:30.098Z,60.00
2023-01-26T09:47:30.061Z,60.80
2023-01-26T09:48:30.034Z,59.60
2023-01-26T09:49:30.043Z,60.40
2023-01-26T09:50:30.015Z,61.10
2023-01-26T09:51:30.053Z,61.10
2023-01-26T09:52:29.987Z,63.60
2023-01-26T09:53:30.014Z,63.30
2023-01-26T09:54:29.980Z,61.40
2023-01-26T09:55:29.983Z,61.10
2023-01-26T09:56:29.960Z,62.70
2023-01-26T09:57:29.978Z,59.30
2023-01-26T09:58:29.944Z,59.00
2023-01-26T09:59:29.940Z,61.40
2023-01-26T10:00:29.910Z,59.80
2023-01-26T10:01:30.002Z,61.60
2023-01-26T10:02:29.908Z,59.00
2023-01-26T10:03:29.915Z,60.60
2023-01-26T10:04:29.875Z,60.20
2023-01-26T10:05:29.884Z,59.60
2023-01-26T10:06:29.844Z,60.70
2023-01-26T10:07:29.860Z,58.10
2023-01-26T10:08:29.825Z,58.00
2023-01-26T10:09:29.866Z,60.80
2023-01-26T10:10:29.801Z,58.80
2023-01-26T10:11:29.827Z,60.00
2023-01-26T10:12:29.783Z,59.30
2023-01-26T10:13:29.799Z,57.40
2023-01-26T10:14:29.765Z,57.90
2023-01-26T10:15:29.877Z,57.70
2023-01-26T10:16:29.747Z,61.30
2023-01-26T10:17:29.759Z,59.20
2023-01-26T10:18:29.737Z,58.70
2023-01-26T10:19:29.744Z,54.70
2023-01-26T10:20:29.704Z,55.40
2023-01-26T10:21:29.751Z,57.40
2023-01-26T10:22:29.681Z,56.40
2023-01-26T10:23:29.713Z,54.20
2023-01-26T10:24:29.665Z,56.60
2023-01-26T10:25:29.676Z,57.20
2023-01-26T10:26:29.646Z,57.90
2023-01-26T10:27:29.681Z,56.30
2023-01-26T10:28:29.634Z,55.80
2023-01-26T10:29:29.642Z,57.00
2023-01-26T10:30:29.718Z,54.20
2023-01-26T10:31:29.667Z,53.30
2023-01-26T10:32:29.582Z,54.70
2023-01-26T10:33:29.633Z,53.60
2023-01-26T10:34:29.566Z,54.00
2023-01-26T10:35:29.576Z,50.60
2023-01-26T10:36:29.545Z,52.80
2023-01-26T10:37:29.562Z,55.60
2023-01-26T10:38:29.521Z,51.40
2023-01-26T10:39:29.551Z,53.00
2023-01-26T10:40:29.509Z,51.50
2023-01-26T10:41:29.523Z,52.90
2023-01-26T10:42:29.484Z,53.10
2023-01-26T10:43:29.491Z,53.10
2023-01-26T10:44:29.482Z,50.50
2023-01-26T10:45:29.472Z,49.90
2023-01-26T10:46:29.545Z,51.30
2023-01-26T10:47:29.439Z,53.00
2023-01-26T10:48:29.444Z,50.70
2023-01-26T10:49:29.410Z,53.60
2023-01-26T10:50:29.443Z,52.90
2023-01-26T10:51:29.414Z,50.90
2023-01-26T10:52:29.402Z,52.00
2023-01-26T10:53:29.369Z,51.00
2023-01-26T10:54:29.383Z,51.70
2023-01-26T10:55:29.352Z,50.20
2023-01-26T10:56:29.390Z,48.80
2023-01-26T10:57:29.366Z,48.50
2023-01-26T10:58:29.356Z,52.90
2023-01-26T10:59:29.306Z,47.90
2023-01-26T11:00:29.323Z,50.80
2023-01-26T11:01:29.326Z,51.50
2023-01-26T11:02:29.338Z,50.10
2023-01-26T11:03:29.297Z,51.50
2023-01-26T11:04:29.284Z,50.60
2023-01-26T11:05:29.249Z,49.30
2023-01-26T11:06:29.265Z,52.00
2023-01-26T11:07:29.226Z,50.60
2023-01-26T11:08:29.243Z,53.30
2023-01-26T11:09:29.237Z,52.30
2023-01-26T11:10:29.226Z,50.80
2023-01-26T11:11:29.189Z,51.30
2023-01-26T11:12:29.202Z,50.20
2023-01-26T11:13:29.174Z,49.00
2023-01-26T11:14:29.178Z,48.30
2023-01-26T11:15:29.167Z,49.10
2023-01-26T11:16:29.232Z,49.10
2023-01-26T11:17:29.139Z,48.60
2023-01-26T11:18:29.138Z,45.60
2023-01-26T11:19:29.110Z,47.40
2023-01-26T11:20:29.121Z,45.50
2023-01-26T11:21:29.105Z,46.80
2023-01-26T11:22:29.110Z,45.60
2023-01-26T11:23:29.068Z,44.90
2023-01-26T11:24:29.079Z,46.20
2023-01-26T11:25:29.052Z,46.00
2023-01-26T11:26:29.062Z,45.80
2023-01-26T11:27:29.045Z,45.30
2023-01-26T11:28:29.040Z,45.00
2023-01-26T11:29:29.014Z,44.80
2023-01-26T11:30:29.030Z,44.90
2023-01-26T11:31:29.017Z,40.50
2023-01-26T11:32:29.002Z,41.90
2023-01-26T11:33:28.998Z,41.20
2023-01-26T11:34:28.985Z,39.80
2023-01-26T11:35:28.947Z,41.40
2023-01-26T11:36:28.968Z,36.30
2023-01-26T11:37:28.928Z,34.70
2023-01-26T11:38:28.935Z,33.60
2023-01-26T11:39:28.940Z,34.00
2023-01-26T11:40:28.920Z,34.80
2023-01-26T11:41:28.888Z,32.90
2023-01-26T11:42:28.900Z,33.00
2023-01-26T11:43:28.862Z,34.90
2023-01-26T11:44:28.876Z,32.60
2023-01-26T11:45:28.896Z,36.30
2023-01-26T11:46:28.862Z,34.10
2023-01-26T11:47:28.823Z,36.70
2023-01-26T11:48:28.858Z,36.60
2023-01-26T11:49:28.806Z,37.00
2023-01-26T11:50:28.821Z,36.90
2023-01-26T11:51:28.803Z,35.60
2023-01-26T11:52:28.795Z,38.50
2023-01-26T11:53:28.759Z,36.80
2023-01-26T11:54:28.784Z,37.30
2023-01-26T11:55:28.740Z,37.30
2023-01-26T11:56:28.757Z,38.50
2023-01-26T11:57:28.799Z,35.40
2023-01-26T11:58:28.736Z,36.80
2023-01-26T11:59:28.715Z,38.40
2023-01-26T12:00:30.792Z,35.90
2023-01-26T12:01:28.694Z,35.10
2023-01-26T12:02:28.707Z,36.20
2023-01-26T12:03:28.704Z,36.00
2023-01-26T12:04:28.676Z,37.70
2023-01-26T12:05:28.644Z,36.80
2023-01-26T12:06:28.657Z,41.70
2023-01-26T12:07:28.622Z,48.30
2023-01-26T12:08:28.636Z,41.30
2023-01-26T12:09:28.626Z,40.60
2023-01-26T12:10:28.614Z,41.40
2023-01-26T12:11:28.579Z,42.30
2023-01-26T12:12:28.592Z,36.30
2023-01-26T12:13:28.557Z,39.80
2023-01-26T12:14:28.577Z,40.30
2023-01-26T12:15:28.554Z,40.40
2023-01-26T12:16:28.585Z,41.30
2023-01-26T12:17:28.516Z,42.80
2023-01-26T12:18:42.171Z,39.70
2023-01-26T12:19:28.505Z,41.10
2023-01-26T12:20:28.517Z,38.00
2023-01-26T12:21:28.567Z,39.10
2023-01-26T12:22:28.501Z,39.80
2023-01-26T12:23:28.467Z,39.20
2023-01-26T12:25:28.448Z,39.70
2023-01-26T12:26:28.448Z,37.40
2023-01-26T12:27:28.436Z,38.60
2023-01-26T12:28:28.431Z,38.80
2023-01-26T12:29:28.401Z,39.90
2023-01-26T12:30:28.558Z,38.70
2023-01-26T12:31:28.509Z,39.00
2023-01-26T12:32:28.391Z,39.70
2023-01-26T12:33:28.379Z,38.60
2023-01-26T12:34:28.386Z,40.50
2023-01-26T12:35:28.337Z,38.80
2023-01-26T12:36:28.367Z,38.60
2023-01-26T12:37:28.317Z,37.30
2023-01-26T12:38:28.339Z,37.30
2023-01-26T12:39:28.315Z,38.30
2023-01-26T12:40:28.312Z,38.90
2023-01-26T12:41:28.284Z,38.60
2023-01-26T12:42:28.291Z,36.60
2023-01-26T12:43:28.256Z,38.20
2023-01-26T12:44:28.266Z,38.50
2023-01-26T12:45:28.263Z,37.80
2023-01-26T12:46:28.284Z,39.30
2023-01-26T12:47:28.214Z,39.30
2023-01-26T12:48:28.241Z,41.40
2023-01-26T12:49:28.224Z,44.70
2023-01-26T12:50:28.210Z,40.60
2023-01-26T12:51:28.192Z,37.30
2023-01-26T12:52:28.187Z,41.20
2023-01-26T12:53:28.152Z,41.70